sensor_id;sensor_type;location;lat;lon;timestamp;pressure;altitude;pressure_sealevel;temperature;humidity
41140;BME280;26881;48.784;9.192;2023-07-28T00:00:26;97852.44;;;16.98;100.00
41140;BME280;26881;48.784;9.192;2023-07-28T00:05:49;97854.31;;;16.88;100.00
41140;BME280;26881;48.784;9.192;2023-07-28T00:11:11;97860.88;;;16.84;100.00
41140;BME280;26881;48.784;9.192;2023-07-28T00:16:36;97855.22;;;16.79;100.00
41140;BME280;26881;48.784;9.192;2023-07-28T00:21:59;97856.44;;;16.75;100.00
41140;BME280;26881;48.784;9.192;2023-07-28T00:27:21;97851.47;;;16.72;100.00
41140;BME280;26881;48.784;9.192;2023-07-28T00:32:43;97855.38;;;16.68;100.00
41140;BME280;26881;48.784;9.192;2023-07-28T00:38:04;97850.41;;;16.64;100.00
41140;BME280;26881;48.784;9.192;2023-07-28T00:43:26;97844.94;;;16.66;100.00
41140;BME280;26881;48.784;9.192;2023-07-28T00:48:48;97840.19;;;16.79;100.00
41140;BME280;26881;48.784;9.192;2023-07-28T00:54:10;97838.28;;;16.99;100.00
41140;BME280;26881;48.784;9.192;2023-07-28T00:59:32;97843.13;;;17.04;100.00
41140;BME280;26881;48.784;9.192;2023-07-28T01:04:54;97848.84;;;16.99;100.00
41140;BME280;26881;48.784;9.192;2023-07-28T01:10:26;97837.72;;;16.96;100.00
41140;BME280;26881;48.784;9.192;2023-07-28T01:15:49;97830.94;;;16.93;100.00
41140;BME280;26881;48.784;9.192;2023-07-28T01:21:20;97832.13;;;16.99;100.00
41140;BME280;26881;48.784;9.192;2023-07-28T01:26:43;97831.25;;;17.08;100.00
41140;BME280;26881;48.784;9.192;2023-07-28T01:32:05;97830.72;;;17.04;100.00
41140;BME280;26881;48.784;9.192;2023-07-28T01:37:27;97820.75;;;16.98;100.00
41140;BME280;26881;48.784;9.192;2023-07-28T01:42:49;97816.34;;;17.61;91.88
41140;BME280;26881;48.784;9.192;2023-07-28T01:48:11;97807.66;;;17.86;89.47
41140;BME280;26881;48.784;9.192;2023-07-28T01:53:33;97797.09;;;17.95;88.87
41140;BME280;26881;48.784;9.192;2023-07-28T01:58:54;97794.59;;;18.19;87.51
41140;BME280;26881;48.784;9.192;2023-07-28T02:04:16;97797.06;;;17.86;90.33
41140;BME280;26881;48.784;9.192;2023-07-28T02:09:38;97801.56;;;17.50;93.41
41140;BME280;26881;48.784;9.192;2023-07-28T02:15:00;97793.91;;;17.21;95.84
41140;BME280;26881;48.784;9.192;2023-07-28T02:20:22;97789.28;;;17.05;98.17
41140;BME280;26881;48.784;9.192;2023-07-28T02:25:44;97790.50;;;16.93;99.18
41140;BME280;26881;48.784;9.192;2023-07-28T02:31:05;97813.34;;;16.84;100.00
41140;BME280;26881;48.784;9.192;2023-07-28T02:36:27;97819.31;;;16.86;100.00
41140;BME280;26881;48.784;9.192;2023-07-28T02:41:49;97823.09;;;16.83;100.00
41140;BME280;26881;48.784;9.192;2023-07-28T02:47:11;97827.00;;;16.79;100.00
41140;BME280;26881;48.784;9.192;2023-07-28T02:52:33;97836.44;;;16.72;100.00
41140;BME280;26881;48.784;9.192;2023-07-28T02:57:55;97848.16;;;16.70;100.00
41140;BME280;26881;48.784;9.192;2023-07-28T03:03:16;97852.28;;;16.72;100.00
41140;BME280;26881;48.784;9.192;2023-07-28T03:08:38;97867.31;;;16.72;100.00
41140;BME280;26881;48.784;9.192;2023-07-28T03:14:00;97878.41;;;16.75;100.00
41140;BME280;26881;48.784;9.192;2023-07-28T03:19:22;97880.78;;;16.78;100.00
41140;BME280;26881;48.784;9.192;2023-07-28T03:24:44;97884.13;;;16.71;100.00
41140;BME280;26881;48.784;9.192;2023-07-28T03:30:08;97882.16;;;16.73;100.00
41140;BME280;26881;48.784;9.192;2023-07-28T03:35:32;97891.75;;;16.74;100.00
41140;BME280;26881;48.784;9.192;2023-07-28T03:40:54;97913.53;;;16.76;100.00
41140;BME280;26881;48.784;9.192;2023-07-28T03:46:16;97924.56;;;16.81;100.00
41140;BME280;26881;48.784;9.192;2023-07-28T03:51:38;97930.94;;;16.69;100.00
41140;BME280;26881;48.784;9.192;2023-07-28T03:57:00;97922.75;;;16.72;100.00
41140;BME280;26881;48.784;9.192;2023-07-28T04:02:22;97929.53;;;16.84;100.00
41140;BME280;26881;48.784;9.192;2023-07-28T04:07:44;97928.75;;;17.01;100.00
41140;BME280;26881;48.784;9.192;2023-07-28T04:13:05;97925.59;;;16.98;100.00
41140;BME280;26881;48.784;9.192;2023-07-28T04:18:27;97920.50;;;17.14;98.32
41140;BME280;26881;48.784;9.192;2023-07-28T04:23:49;97904.88;;;17.39;95.25
41140;BME280;26881;48.784;9.192;2023-07-28T04:29:11;97903.47;;;17.44;94.44
41140;BME280;26881;48.784;9.192;2023-07-28T04:34:33;97890.63;;;17.49;93.85
41140;BME280;26881;48.784;9.192;2023-07-28T04:39:55;97888.94;;;17.66;92.73
41140;BME280;26881;48.784;9.192;2023-07-28T04:45:17;97886.63;;;17.63;93.72
41140;BME280;26881;48.784;9.192;2023-07-28T04:50:39;97880.19;;;17.66;94.74
41140;BME280;26881;48.784;9.192;2023-07-28T04:56:01;97905.78;;;17.47;96.98
41140;BME280;26881;48.784;9.192;2023-07-28T05:01:25;97896.34;;;17.45;98.13
41140;BME280;26881;48.784;9.192;2023-07-28T05:06:47;97893.81;;;17.53;100.00
41140;BME280;26881;48.784;9.192;2023-07-28T05:12:08;97915.09;;;17.52;100.00
41140;BME280;26881;48.784;9.192;2023-07-28T05:17:30;97925.09;;;17.58;100.00
41140;BME280;26881;48.784;9.192;2023-07-28T05:22:52;97928.69;;;17.57;100.00
41140;BME280;26881;48.784;9.192;2023-07-28T05:28:14;97927.72;;;17.58;100.00
41140;BME280;26881;48.784;9.192;2023-07-28T05:33:39;97938.06;;;17.51;100.00
41140;BME280;26881;48.784;9.192;2023-07-28T05:39:01;97936.69;;;17.47;100.00
41140;BME280;26881;48.784;9.192;2023-07-28T05:44:23;97942.91;;;17.56;100.00
41140;BME280;26881;48.784;9.192;2023-07-28T05:49:45;97944.41;;;17.58;100.00
41140;BME280;26881;48.784;9.192;2023-07-28T05:55:07;97947.28;;;17.65;100.00
41140;BME280;26881;48.784;9.192;2023-07-28T06:00:30;97954.53;;;17.63;100.00
41140;BME280;26881;48.784;9.192;2023-07-28T06:05:52;97958.56;;;17.67;100.00
41140;BME280;26881;48.784;9.192;2023-07-28T06:11:14;97960.59;;;17.73;100.00
41140;BME280;26881;48.784;9.192;2023-07-28T06:16:36;97966.69;;;17.74;100.00
41140;BME280;26881;48.784;9.192;2023-07-28T06:21:58;97970.19;;;17.74;100.00
41140;BME280;26881;48.784;9.192;2023-07-28T06:27:19;97961.06;;;17.86;100.00
41140;BME280;26881;48.784;9.192;2023-07-28T06:32:41;97960.31;;;17.94;100.00
41140;BME280;26881;48.784;9.192;2023-07-28T06:38:03;97972.75;;;18.02;100.00
41140;BME280;26881;48.784;9.192;2023-07-28T06:43:26;97982.97;;;17.97;100.00
41140;BME280;26881;48.784;9.192;2023-07-28T06:48:48;97986.25;;;17.90;100.00
41140;BME280;26881;48.784;9.192;2023-07-28T06:54:09;97977.91;;;18.03;100.00
41140;BME280;26881;48.784;9.192;2023-07-28T06:59:34;97979.28;;;18.25;100.00
41140;BME280;26881;48.784;9.192;2023-07-28T07:04:56;97989.06;;;18.51;100.00
41140;BME280;26881;48.784;9.192;2023-07-28T07:10:18;97991.41;;;18.62;100.00
41140;BME280;26881;48.784;9.192;2023-07-28T07:15:40;97986.34;;;18.69;100.00
41140;BME280;26881;48.784;9.192;2023-07-28T07:21:03;97993.44;;;18.86;100.00
41140;BME280;26881;48.784;9.192;2023-07-28T07:26:27;97999.09;;;18.91;100.00
41140;BME280;26881;48.784;9.192;2023-07-28T07:31:49;97999.50;;;19.05;100.00
41140;BME280;26881;48.784;9.192;2023-07-28T07:37:16;97992.44;;;19.30;100.00
41140;BME280;26881;48.784;9.192;2023-07-28T07:42:47;97998.88;;;19.62;100.00
41140;BME280;26881;48.784;9.192;2023-07-28T07:48:09;97997.81;;;20.13;99.26
41140;BME280;26881;48.784;9.192;2023-07-28T07:53:31;97997.28;;;20.51;94.30
41140;BME280;26881;48.784;9.192;2023-07-28T07:58:53;98003.47;;;20.27;91.10
41140;BME280;26881;48.784;9.192;2023-07-28T08:04:14;98011.09;;;20.30;92.99
41140;BME280;26881;48.784;9.192;2023-07-28T08:09:36;98020.53;;;20.32;93.79
41140;BME280;26881;48.784;9.192;2023-07-28T08:14:59;98013.56;;;20.39;91.95
41140;BME280;26881;48.784;9.192;2023-07-28T08:20:20;98029.84;;;20.45;91.08
41140;BME280;26881;48.784;9.192;2023-07-28T08:25:42;98040.81;;;20.50;90.07
41140;BME280;26881;48.784;9.192;2023-07-28T08:31:04;98046.47;;;20.47;90.66
41140;BME280;26881;48.784;9.192;2023-07-28T08:36:26;98038.66;;;20.78;89.52
41140;BME280;26881;48.784;9.192;2023-07-28T08:41:57;98054.38;;;21.12;86.40
41140;BME280;26881;48.784;9.192;2023-07-28T08:47:19;98048.81;;;21.30;84.00
41140;BME280;26881;48.784;9.192;2023-07-28T08:52:41;98055.44;;;21.34;84.44
41140;BME280;26881;48.784;9.192;2023-07-28T08:58:20;98051.03;;;21.66;82.13
41140;BME280;26881;48.784;9.192;2023-07-28T09:03:42;98061.03;;;21.56;80.20
41140;BME280;26881;48.784;9.192;2023-07-28T09:09:08;98063.13;;;21.29;81.98
41140;BME280;26881;48.784;9.192;2023-07-28T09:14:30;98060.28;;;21.47;81.52
41140;BME280;26881;48.784;9.192;2023-07-28T09:19:54;98064.38;;;21.58;81.33
41140;BME280;26881;48.784;9.192;2023-07-28T09:25:16;98061.56;;;21.51;81.23
41140;BME280;26881;48.784;9.192;2023-07-28T09:30:48;98058.28;;;21.33;81.92
41140;BME280;26881;48.784;9.192;2023-07-28T09:36:13;98065.09;;;21.43;82.56
41140;BME280;26881;48.784;9.192;2023-07-28T09:41:38;98069.84;;;21.64;80.44
41140;BME280;26881;48.784;9.192;2023-07-28T09:47:00;98054.84;;;22.26;76.77
41140;BME280;26881;48.784;9.192;2023-07-28T09:52:24;98052.41;;;22.62;76.20
41140;BME280;26881;48.784;9.192;2023-07-28T09:57:51;98059.09;;;22.96;73.53
41140;BME280;26881;48.784;9.192;2023-07-28T10:03:14;98063.19;;;22.69;73.00
41140;BME280;26881;48.784;9.192;2023-07-28T10:08:37;98060.50;;;23.07;72.12
41140;BME280;26881;48.784;9.192;2023-07-28T10:13:59;98059.59;;;23.29;68.20
41140;BME280;26881;48.784;9.192;2023-07-28T10:19:21;98064.97;;;22.91;70.12
41140;BME280;26881;48.784;9.192;2023-07-28T10:30:13;98069.34;;;22.23;73.31
41140;BME280;26881;48.784;9.192;2023-07-28T10:35:47;98078.06;;;22.40;73.34
41140;BME280;26881;48.784;9.192;2023-07-28T10:41:15;98074.16;;;22.28;72.87
41140;BME280;26881;48.784;9.192;2023-07-28T10:46:37;98085.94;;;22.57;71.83
41140;BME280;26881;48.784;9.192;2023-07-28T10:52:00;98081.03;;;22.45;73.00
41140;BME280;26881;48.784;9.192;2023-07-28T10:57:22;98075.41;;;22.78;73.45
41140;BME280;26881;48.784;9.192;2023-07-28T11:02:49;98072.09;;;23.14;70.07
41140;BME280;26881;48.784;9.192;2023-07-28T11:08:12;98070.25;;;23.74;65.45
41140;BME280;26881;48.784;9.192;2023-07-28T11:13:34;98075.88;;;24.58;63.69
41140;BME280;26881;48.784;9.192;2023-07-28T11:19:03;98074.78;;;25.02;61.40
41140;BME280;26881;48.784;9.192;2023-07-28T11:24:28;98082.41;;;24.99;60.63
41140;BME280;26881;48.784;9.192;2023-07-28T11:29:50;98077.06;;;25.27;59.06
41140;BME280;26881;48.784;9.192;2023-07-28T11:35:15;98064.34;;;25.42;57.25
41140;BME280;26881;48.784;9.192;2023-07-28T11:40:38;98062.00;;;26.36;52.78
41140;BME280;26881;48.784;9.192;2023-07-28T11:46:00;98058.47;;;26.02;53.96
41140;BME280;26881;48.784;9.192;2023-07-28T11:51:22;98059.53;;;26.21;53.25
41140;BME280;26881;48.784;9.192;2023-07-28T11:56:45;98059.44;;;25.94;53.12
41140;BME280;26881;48.784;9.192;2023-07-28T12:02:07;98066.66;;;24.89;55.58
41140;BME280;26881;48.784;9.192;2023-07-28T12:07:33;98068.25;;;24.55;56.61
41140;BME280;26881;48.784;9.192;2023-07-28T12:12:55;98079.13;;;24.32;59.97
41140;BME280;26881;48.784;9.192;2023-07-28T12:18:20;98095.25;;;23.73;62.13
41140;BME280;26881;48.784;9.192;2023-07-28T12:23:47;98087.72;;;23.02;64.13
41140;BME280;26881;48.784;9.192;2023-07-28T12:29:12;98084.06;;;23.03;65.93
41140;BME280;26881;48.784;9.192;2023-07-28T12:34:34;98079.28;;;23.28;66.10
41140;BME280;26881;48.784;9.192;2023-07-28T12:40:12;98081.94;;;22.99;65.38
41140;BME280;26881;48.784;9.192;2023-07-28T12:45:37;98073.50;;;23.25;63.55
41140;BME280;26881;48.784;9.192;2023-07-28T12:51:01;98077.53;;;23.50;64.15
41140;BME280;26881;48.784;9.192;2023-07-28T12:56:25;98081.22;;;24.15;64.43
41140;BME280;26881;48.784;9.192;2023-07-28T13:01:50;98078.78;;;24.57;62.23
41140;BME280;26881;48.784;9.192;2023-07-28T13:07:12;98081.16;;;24.30;61.39
41140;BME280;26881;48.784;9.192;2023-07-28T13:12:37;98083.81;;;24.30;60.43
41140;BME280;26881;48.784;9.192;2023-07-28T13:18:02;98091.19;;;24.28;62.29
41140;BME280;26881;48.784;9.192;2023-07-28T13:23:24;98092.78;;;24.44;61.16
41140;BME280;26881;48.784;9.192;2023-07-28T13:28:46;98100.28;;;24.49;61.06
41140;BME280;26881;48.784;9.192;2023-07-28T13:34:09;98104.34;;;24.08;62.93
41140;BME280;26881;48.784;9.192;2023-07-28T13:39:31;98102.28;;;23.44;68.46
41140;BME280;26881;48.784;9.192;2023-07-28T13:44:56;98112.09;;;23.14;71.62
41140;BME280;26881;48.784;9.192;2023-07-28T13:50:19;98125.69;;;22.43;75.53
41140;BME280;26881;48.784;9.192;2023-07-28T13:55:41;98144.19;;;21.66;87.20
41140;BME280;26881;48.784;9.192;2023-07-28T14:01:03;98141.94;;;20.65;99.48
41140;BME280;26881;48.784;9.192;2023-07-28T14:06:25;98151.75;;;19.97;100.00
41140;BME280;26881;48.784;9.192;2023-07-28T14:11:47;98110.94;;;19.64;100.00
41140;BME280;26881;48.784;9.192;2023-07-28T14:17:09;98073.28;;;19.52;100.00
41140;BME280;26881;48.784;9.192;2023-07-28T14:22:31;98069.47;;;19.54;100.00
41140;BME280;26881;48.784;9.192;2023-07-28T14:27:53;98080.41;;;19.59;100.00
41140;BME280;26881;48.784;9.192;2023-07-28T14:33:16;98125.97;;;19.81;100.00
41140;BME280;26881;48.784;9.192;2023-07-28T14:38:39;98143.75;;;19.89;100.00
41140;BME280;26881;48.784;9.192;2023-07-28T14:44:01;98120.72;;;19.97;100.00
41140;BME280;26881;48.784;9.192;2023-07-28T14:49:22;98126.19;;;19.96;100.00
41140;BME280;26881;48.784;9.192;2023-07-28T14:54:44;98113.09;;;19.94;100.00
41140;BME280;26881;48.784;9.192;2023-07-28T15:00:07;98124.53;;;19.95;100.00
41140;BME280;26881;48.784;9.192;2023-07-28T15:05:29;98130.34;;;20.07;100.00
41140;BME280;26881;48.784;9.192;2023-07-28T15:10:50;98106.31;;;20.08;100.00
41140;BME280;26881;48.784;9.192;2023-07-28T15:16:13;98119.16;;;20.37;100.00
41140;BME280;26881;48.784;9.192;2023-07-28T15:21:35;98126.03;;;20.56;100.00
41140;BME280;26881;48.784;9.192;2023-07-28T15:26:57;98121.16;;;21.09;100.00
41140;BME280;26881;48.784;9.192;2023-07-28T15:32:19;98114.13;;;21.33;100.00
41140;BME280;26881;48.784;9.192;2023-07-28T15:37:41;98123.13;;;21.32;100.00
41140;BME280;26881;48.784;9.192;2023-07-28T15:43:03;98129.81;;;20.95;100.00
41140;BME280;26881;48.784;9.192;2023-07-28T15:48:24;98134.31;;;20.61;100.00
41140;BME280;26881;48.784;9.192;2023-07-28T15:53:46;98131.78;;;20.35;100.00
41140;BME280;26881;48.784;9.192;2023-07-28T15:59:08;98127.13;;;20.37;100.00
41140;BME280;26881;48.784;9.192;2023-07-28T16:04:30;98126.84;;;20.57;100.00
41140;BME280;26881;48.784;9.192;2023-07-28T16:09:52;98125.50;;;20.69;100.00
41140;BME280;26881;48.784;9.192;2023-07-28T16:15:14;98120.03;;;20.71;100.00
41140;BME280;26881;48.784;9.192;2023-07-28T16:20:36;98121.19;;;20.76;100.00
41140;BME280;26881;48.784;9.192;2023-07-28T16:25:58;98123.38;;;20.73;100.00
41140;BME280;26881;48.784;9.192;2023-07-28T16:31:20;98125.69;;;20.76;100.00
41140;BME280;26881;48.784;9.192;2023-07-28T16:36:43;98113.22;;;20.68;100.00
41140;BME280;26881;48.784;9.192;2023-07-28T16:42:04;98117.03;;;20.74;100.00
41140;BME280;26881;48.784;9.192;2023-07-28T16:47:27;98107.75;;;20.61;100.00
41140;BME280;26881;48.784;9.192;2023-07-28T16:52:50;98100.22;;;20.49;100.00
41140;BME280;26881;48.784;9.192;2023-07-28T16:58:12;98098.25;;;20.42;100.00
41140;BME280;26881;48.784;9.192;2023-07-28T17:03:34;98100.56;;;20.37;100.00
41140;BME280;26881;48.784;9.192;2023-07-28T17:08:56;98105.88;;;20.46;100.00
41140;BME280;26881;48.784;9.192;2023-07-28T17:14:17;98114.53;;;20.56;100.00
41140;BME280;26881;48.784;9.192;2023-07-28T17:19:39;98121.50;;;20.81;100.00
41140;BME280;26881;48.784;9.192;2023-07-28T17:25:02;98126.84;;;20.90;100.00
41140;BME280;26881;48.784;9.192;2023-07-28T17:30:23;98126.69;;;20.75;100.00
41140;BME280;26881;48.784;9.192;2023-07-28T17:35:45;98124.50;;;20.62;100.00
41140;BME280;26881;48.784;9.192;2023-07-28T17:41:08;98122.53;;;20.64;100.00
41140;BME280;26881;48.784;9.192;2023-07-28T17:46:29;98116.34;;;20.55;100.00
41140;BME280;26881;48.784;9.192;2023-07-28T17:51:51;98116.84;;;20.51;100.00
41140;BME280;26881;48.784;9.192;2023-07-28T17:57:13;98106.03;;;20.44;100.00
41140;BME280;26881;48.784;9.192;2023-07-28T18:02:35;98108.84;;;20.34;100.00
41140;BME280;26881;48.784;9.192;2023-07-28T18:07:57;98107.19;;;20.33;100.00
41140;BME280;26881;48.784;9.192;2023-07-28T18:13:19;98110.53;;;20.35;100.00
41140;BME280;26881;48.784;9.192;2023-07-28T18:18:41;98114.69;;;20.38;100.00
41140;BME280;26881;48.784;9.192;2023-07-28T18:24:03;98114.16;;;20.34;100.00
41140;BME280;26881;48.784;9.192;2023-07-28T18:29:25;98127.59;;;20.25;100.00
41140;BME280;26881;48.784;9.192;2023-07-28T18:34:47;98129.38;;;20.16;100.00
41140;BME280;26881;48.784;9.192;2023-07-28T18:40:09;98143.97;;;19.95;100.00
41140;BME280;26881;48.784;9.192;2023-07-28T18:45:31;98143.41;;;19.84;100.00
41140;BME280;26881;48.784;9.192;2023-07-28T18:50:53;98157.94;;;19.71;100.00
41140;BME280;26881;48.784;9.192;2023-07-28T18:56:15;98151.22;;;19.59;100.00
41140;BME280;26881;48.784;9.192;2023-07-28T19:01:37;98161.28;;;19.47;100.00
41140;BME280;26881;48.784;9.192;2023-07-28T19:06:59;98152.97;;;19.42;100.00
41140;BME280;26881;48.784;9.192;2023-07-28T19:12:21;98158.88;;;19.36;100.00
41140;BME280;26881;48.784;9.192;2023-07-28T19:17:44;98157.53;;;19.32;100.00
41140;BME280;26881;48.784;9.192;2023-07-28T19:23:08;98173.38;;;19.24;100.00
41140;BME280;26881;48.784;9.192;2023-07-28T19:28:29;98177.34;;;19.20;100.00
41140;BME280;26881;48.784;9.192;2023-07-28T19:33:52;98188.41;;;19.15;100.00
41140;BME280;26881;48.784;9.192;2023-07-28T19:39:13;98191.19;;;19.13;100.00
41140;BME280;26881;48.784;9.192;2023-07-28T19:44:35;98204.09;;;19.08;100.00
41140;BME280;26881;48.784;9.192;2023-07-28T19:50:04;98215.91;;;19.14;100.00
41140;BME280;26881;48.784;9.192;2023-07-28T19:55:34;98214.00;;;19.06;100.00
41140;BME280;26881;48.784;9.192;2023-07-28T20:00:56;98216.50;;;18.90;100.00
41140;BME280;26881;48.784;9.192;2023-07-28T20:06:18;98211.16;;;18.82;100.00
41140;BME280;26881;48.784;9.192;2023-07-28T20:11:40;98203.41;;;18.70;100.00
41140;BME280;26881;48.784;9.192;2023-07-28T20:17:02;98205.88;;;18.54;100.00
41140;BME280;26881;48.784;9.192;2023-07-28T20:22:24;98188.50;;;18.51;100.00
41140;BME280;26881;48.784;9.192;2023-07-28T20:27:46;98189.75;;;18.47;100.00
41140;BME280;26881;48.784;9.192;2023-07-28T20:33:07;98188.94;;;18.47;100.00
41140;BME280;26881;48.784;9.192;2023-07-28T20:38:29;98195.88;;;18.48;100.00
41140;BME280;26881;48.784;9.192;2023-07-28T20:43:51;98186.13;;;18.48;100.00
41140;BME280;26881;48.784;9.192;2023-07-28T20:49:14;98182.66;;;18.48;100.00
41140;BME280;26881;48.784;9.192;2023-07-28T20:54:36;98190.53;;;18.40;100.00
41140;BME280;26881;48.784;9.192;2023-07-28T20:59:58;98188.06;;;18.28;100.00
41140;BME280;26881;48.784;9.192;2023-07-28T21:05:20;98191.38;;;18.13;100.00
41140;BME280;26881;48.784;9.192;2023-07-28T21:10:42;98190.97;;;18.07;100.00
41140;BME280;26881;48.784;9.192;2023-07-28T21:16:04;98184.19;;;18.05;100.00
41140;BME280;26881;48.784;9.192;2023-07-28T21:21:26;98193.06;;;18.04;100.00
41140;BME280;26881;48.784;9.192;2023-07-28T21:26:48;98193.97;;;17.95;100.00
41140;BME280;26881;48.784;9.192;2023-07-28T21:32:10;98185.34;;;17.93;100.00
41140;BME280;26881;48.784;9.192;2023-07-28T21:37:32;98180.19;;;17.91;100.00
41140;BME280;26881;48.784;9.192;2023-07-28T21:42:54;98183.16;;;17.88;100.00
41140;BME280;26881;48.784;9.192;2023-07-28T21:48:16;98195.13;;;17.82;100.00
41140;BME280;26881;48.784;9.192;2023-07-28T21:53:38;98201.25;;;17.73;100.00
41140;BME280;26881;48.784;9.192;2023-07-28T21:59:00;98199.66;;;17.62;100.00
41140;BME280;26881;48.784;9.192;2023-07-28T22:04:22;98193.50;;;17.62;100.00
41140;BME280;26881;48.784;9.192;2023-07-28T22:09:44;98198.78;;;17.62;100.00
41140;BME280;26881;48.784;9.192;2023-07-28T22:15:06;98206.03;;;17.60;100.00
41140;BME280;26881;48.784;9.192;2023-07-28T22:20:32;98195.34;;;17.52;100.00
41140;BME280;26881;48.784;9.192;2023-07-28T22:25:54;98204.28;;;17.51;100.00
41140;BME280;26881;48.784;9.192;2023-07-28T22:31:16;98206.91;;;17.41;100.00
41140;BME280;26881;48.784;9.192;2023-07-28T22:36:38;98207.50;;;17.35;100.00
41140;BME280;26881;48.784;9.192;2023-07-28T22:42:00;98207.94;;;17.30;100.00
41140;BME280;26881;48.784;9.192;2023-07-28T22:47:23;98203.91;;;17.26;100.00
41140;BME280;26881;48.784;9.192;2023-07-28T22:52:44;98194.31;;;17.25;100.00
41140;BME280;26881;48.784;9.192;2023-07-28T22:58:06;98198.59;;;17.36;100.00
41140;BME280;26881;48.784;9.192;2023-07-28T23:03:28;98189.09;;;17.43;100.00
41140;BME280;26881;48.784;9.192;2023-07-28T23:08:50;98180.75;;;17.47;100.00
41140;BME280;26881;48.784;9.192;2023-07-28T23:14:12;98183.94;;;17.51;100.00
41140;BME280;26881;48.784;9.192;2023-07-28T23:19:34;98175.59;;;17.56;100.00
41140;BME280;26881;48.784;9.192;2023-07-28T23:24:56;98163.50;;;17.53;100.00
41140;BME280;26881;48.784;9.192;2023-07-28T23:30:18;98163.50;;;17.53;100.00
41140;BME280;26881;48.784;9.192;2023-07-28T23:35:40;98148.75;;;17.51;100.00
41140;BME280;26881;48.784;9.192;2023-07-28T23:41:02;98158.50;;;17.40;100.00
41140;BME280;26881;48.784;9.192;2023-07-28T23:46:24;98156.28;;;17.36;100.00
41140;BME280;26881;48.784;9.192;2023-07-28T23:51:46;98152.00;;;17.35;100.00
41140;BME280;26881;48.784;9.192;2023-07-28T23:57:08;98147.84;;;17.32;100.00
